Time,TemperatureF,DewpointF,PressureIn,WindDirection,WindDirectionDegrees,WindSpeedMPH,WindSpeedGustMPH,Humidity,HourlyPrecipIn,Conditions,Clouds,dailyrainin,SoftwareType,DateUTC
2013-03-09 00:11:00,61.4,56.0,30.00,SSE,155,11.0,21.0,81,0.00,,,0.00,weatherlink.com 1.10,2013-03-09 06:11:00,
2013-03-09 00:26:00,61.3,55.0,29.99,SE,142,8.0,23.0,81,0.00,,,0.00,weatherlink.com 1.10,2013-03-09 06:26:00,
2013-03-09 00:41:00,61.0,56.0,29.99,SSE,163,14.0,18.0,82,0.00,,,0.00,weatherlink.com 1.10,2013-03-09 06:41:00,
2013-03-09 00:56:00,60.7,55.0,29.98,SE,146,8.0,16.0,82,0.00,,,0.00,weatherlink.com 1.10,2013-03-09 06:56:00,
2013-03-09 01:11:00,60.4,55.0,29.98,SSE,153,5.0,17.0,83,0.00,,,0.00,weatherlink.com 1.10,2013-03-09 07:11:00,
2013-03-09 01:26:00,60.1,55.0,29.97,South,181,4.0,16.0,84,0.00,,,0.00,weatherlink.com 1.10,2013-03-09 07:26:00,
2013-03-09 01:41:00,59.9,55.0,29.97,South,172,6.0,14.0,85,0.00,,,0.00,weatherlink.com 1.10,2013-03-09 07:41:00,
2013-03-09 01:56:00,60.1,56.0,29.96,SSW,205,11.0,17.0,85,0.00,,,0.00,weatherlink.com 1.10,2013-03-09 07:56:00,
2013-03-09 02:11:00,60.1,56.0,29.95,ESE,113,10.0,16.0,85,0.00,,,0.00,weatherlink.com 1.10,2013-03-09 08:11:00,
2013-03-09 02:26:00,60.1,56.0,29.95,SSE,160,6.0,17.0,86,0.00,,,0.00,weatherlink.com 1.10,2013-03-09 08:26:00,
2013-03-09 02:41:00,60.3,56.0,29.94,SSW,198,6.0,14.0,86,0.00,,,0.00,weatherlink.com 1.10,2013-03-09 08:41:00,
2013-03-09 02:56:00,60.4,56.0,29.94,South,184,8.0,17.0,86,0.00,,,0.00,weatherlink.com 1.10,2013-03-09 08:56:00,
2013-03-09 03:11:00,60.5,56.0,29.93,SSE,155,8.0,16.0,86,0.00,,,0.00,weatherlink.com 1.10,2013-03-09 09:11:00,
2013-03-09 03:26:00,60.4,56.0,29.92,SE,135,7.0,15.0,86,0.00,,,0.00,weatherlink.com 1.10,2013-03-09 09:26:00,
2013-03-09 03:41:00,60.5,56.0,29.92,SSE,159,6.0,14.0,86,0.00,,,0.00,weatherlink.com 1.10,2013-03-09 09:41:00,
2013-03-09 03:56:00,60.5,56.0,29.91,SE,133,8.0,13.0,86,0.00,,,0.00,weatherlink.com 1.10,2013-03-09 09:56:00,
2013-03-09 04:11:00,60.5,56.0,29.91,SE,124,6.0,14.0,86,0.00,,,0.00,weatherlink.com 1.10,2013-03-09 10:11:00,
2013-03-09 04:26:00,60.4,56.0,29.91,SE,127,9.0,14.0,86,0.00,,,0.00,weatherlink.com 1.10,2013-03-09 10:26:00,
2013-03-09 04:41:00,60.4,57.0,29.90,SSE,162,5.0,19.0,87,0.00,,,0.00,weatherlink.com 1.10,2013-03-09 10:41:00,
2013-03-09 04:56:00,60.6,57.0,29.90,South,170,7.0,17.0,87,0.00,,,0.00,weatherlink.com 1.10,2013-03-09 10:56:00,
2013-03-09 05:11:00,60.8,57.0,29.90,SE,133,11.0,17.0,87,0.00,,,0.00,weatherlink.com 1.10,2013-03-09 11:11:00,
2013-03-09 05:26:00,60.8,57.0,29.90,SSE,149,9.0,17.0,87,0.00,,,0.00,weatherlink.com 1.10,2013-03-09 11:26:00,
2013-03-09 05:41:00,60.9,57.0,29.90,SE,135,9.0,15.0,87,0.00,,,0.00,weatherlink.com 1.10,2013-03-09 11:41:00,
2013-03-09 05:56:00,61.0,57.0,29.89,SSE,148,7.0,14.0,87,0.00,,,0.00,weatherlink.com 1.10,2013-03-09 11:56:00,
2013-03-09 06:11:00,61.0,57.0,29.88,SE,143,13.0,14.0,87,0.00,,,0.00,weatherlink.com 1.10,2013-03-09 12:11:00,
2013-03-09 06:26:00,61.2,57.0,29.88,SE,146,4.0,17.0,87,0.00,,,0.00,weatherlink.com 1.10,2013-03-09 12:26:00,
2013-03-09 06:41:00,61.3,57.0,29.88,SSW,193,7.0,16.0,87,0.00,,,0.00,weatherlink.com 1.10,2013-03-09 12:41:00,
2013-03-09 06:56:00,61.3,58.0,29.88,SSE,158,7.0,17.0,88,0.00,,,0.00,weatherlink.com 1.10,2013-03-09 12:56:00,
2013-03-09 07:11:00,61.4,58.0,29.88,South,191,3.0,20.0,88,0.00,,,0.00,weatherlink.com 1.10,2013-03-09 13:11:00,
2013-03-09 07:27:00,61.7,58.0,29.88,SE,145,11.0,18.0,88,0.00,,,0.00,weatherlink.com 1.10,2013-03-09 13:27:00,
2013-03-09 07:42:00,61.9,58.0,29.88,SSW,198,6.0,18.0,88,0.00,,,0.00,weatherlink.com 1.10,2013-03-09 13:42:00,
2013-03-09 07:57:00,62.1,59.0,29.88,SE,146,10.0,19.0,88,0.00,,,0.00,weatherlink.com 1.10,2013-03-09 13:57:00,
2013-03-09 08:12:00,62.2,59.0,29.88,SE,146,7.0,18.0,88,0.00,,,0.00,weatherlink.com 1.10,2013-03-09 14:12:00,
2013-03-09 08:27:00,62.5,59.0,29.88,SE,145,16.0,20.0,88,0.00,,,0.00,weatherlink.com 1.10,2013-03-09 14:27:00,
2013-03-09 08:42:00,62.7,59.0,29.87,SSE,152,8.0,20.0,88,0.00,,,0.00,weatherlink.com 1.10,2013-03-09 14:42:00,
2013-03-09 08:57:00,63.0,59.0,29.87,SE,142,10.0,18.0,88,0.00,,,0.00,weatherlink.com 1.10,2013-03-09 14:57:00,
2013-03-09 09:12:00,63.4,60.0,29.86,ESE,115,8.0,18.0,88,0.00,,,0.00,weatherlink.com 1.10,2013-03-09 15:12:00,
2013-03-09 09:27:00,63.8,60.0,29.86,SE,139,7.0,14.0,87,0.00,,,0.00,weatherlink.com 1.10,2013-03-09 15:27:00,
2013-03-09 09:42:00,64.3,60.0,29.86,SSW,210,7.0,21.0,87,0.00,,,0.00,weatherlink.com 1.10,2013-03-09 15:42:00,
2013-03-09 09:57:00,64.9,61.0,29.86,South,179,9.0,19.0,86,0.00,,,0.00,weatherlink.com 1.10,2013-03-09 15:57:00,
2013-03-09 10:12:00,65.6,61.0,29.86,SSW,198,6.0,23.0,85,0.00,,,0.00,weatherlink.com 1.10,2013-03-09 16:12:00,
2013-03-09 10:27:00,66.4,61.0,29.86,SSW,195,7.0,20.0,83,0.00,,,0.00,weatherlink.com 1.10,2013-03-09 16:27:00,
2013-03-09 10:42:00,66.9,61.0,29.85,ESE,121,14.0,23.0,82,0.00,,,0.00,weatherlink.com 1.10,2013-03-09 16:42:00,
2013-03-09 10:57:00,67.1,61.0,29.85,SSW,193,10.0,22.0,82,0.00,,,0.00,weatherlink.com 1.10,2013-03-09 16:57:00,
2013-03-09 11:12:00,67.0,61.0,29.85,SSE,165,9.0,24.0,82,0.00,,,0.00,weatherlink.com 1.10,2013-03-09 17:12:00,
2013-03-09 11:27:00,66.7,61.0,29.85,South,190,9.0,24.0,83,0.00,,,0.00,weatherlink.com 1.10,2013-03-09 17:27:00,
2013-03-09 11:42:00,66.8,62.0,29.84,SW,214,10.0,22.0,83,0.00,,,0.00,weatherlink.com 1.10,2013-03-09 17:42:00,
2013-03-09 11:57:00,66.9,62.0,29.82,SSW,201,12.0,22.0,83,0.00,,,0.00,weatherlink.com 1.10,2013-03-09 17:57:00,
2013-03-09 12:12:00,66.9,62.0,29.83,SE,128,8.0,19.0,83,0.00,,,0.00,weatherlink.com 1.10,2013-03-09 18:12:00,
2013-03-09 12:27:00,66.6,62.0,29.82,SSE,153,7.0,19.0,85,0.00,,,0.00,weatherlink.com 1.10,2013-03-09 18:27:00,
2013-03-09 12:42:00,66.4,62.0,29.82,South,179,2.0,17.0,86,0.00,,,0.00,weatherlink.com 1.10,2013-03-09 18:42:00,
2013-03-09 12:57:00,66.8,63.0,29.81,SE,125,4.0,17.0,86,0.00,,,0.00,weatherlink.com 1.10,2013-03-09 18:57:00,
2013-03-09 13:12:00,66.1,63.0,29.80,SSW,195,5.0,14.0,89,0.00,,,0.00,weatherlink.com 1.10,2013-03-09 19:12:00,
2013-03-09 13:27:00,66.9,63.0,29.78,SE,138,12.0,18.0,88,0.00,,,0.00,weatherlink.com 1.10,2013-03-09 19:27:00,
2013-03-09 13:42:00,66.5,64.0,29.78,SSE,158,7.0,20.0,90,0.00,,,0.00,weatherlink.com 1.10,2013-03-09 19:42:00,
2013-03-09 13:57:00,65.8,64.0,29.77,South,174,8.0,14.0,92,0.00,,,0.00,weatherlink.com 1.10,2013-03-09 19:57:00,
2013-03-09 14:12:00,66.0,64.0,29.76,SE,141,9.0,15.0,93,0.00,,,0.00,weatherlink.com 1.10,2013-03-09 20:12:00,
2013-03-09 14:27:00,66.2,64.0,29.75,SE,141,7.0,17.0,93,0.00,,,0.00,weatherlink.com 1.10,2013-03-09 20:27:00,
2013-03-09 14:42:00,66.9,64.0,29.75,SSE,162,8.0,15.0,91,0.00,,,0.00,weatherlink.com 1.10,2013-03-09 20:42:00,
2013-03-09 14:58:00,67.2,65.0,29.74,South,188,15.0,18.0,91,0.00,,,0.00,weatherlink.com 1.10,2013-03-09 20:58:00,
2013-03-09 15:13:00,67.2,64.0,29.73,South,179,9.0,20.0,90,0.00,,,0.00,weatherlink.com 1.10,2013-03-09 21:13:00,
2013-03-09 15:28:00,67.4,65.0,29.73,SSW,193,13.0,20.0,90,0.00,,,0.00,weatherlink.com 1.10,2013-03-09 21:28:00,
2013-03-09 15:43:00,67.2,65.0,29.73,SSW,208,16.0,19.0,91,0.01,,,0.01,weatherlink.com 1.10,2013-03-09 21:43:00,
2013-03-09 15:58:00,66.6,64.0,29.73,SSW,193,9.0,15.0,92,0.01,,,0.01,weatherlink.com 1.10,2013-03-09 21:58:00,
2013-03-09 16:13:00,66.5,64.0,29.71,SSW,196,9.0,18.0,92,0.05,,,0.05,weatherlink.com 1.10,2013-03-09 22:13:00,
2013-03-09 16:28:00,67.2,65.0,29.69,South,180,7.0,22.0,92,0.05,,,0.05,weatherlink.com 1.10,2013-03-09 22:28:00,
2013-03-09 16:43:00,67.5,65.0,29.68,SSE,158,9.0,19.0,91,0.04,,,0.05,weatherlink.com 1.10,2013-03-09 22:43:00,
2013-03-09 16:58:00,67.2,65.0,29.66,SE,136,7.0,18.0,91,0.03,,,0.05,weatherlink.com 1.10,2013-03-09 22:58:00,
2013-03-09 17:13:00,66.8,65.0,29.66,SSE,158,8.0,16.0,92,0.00,,,0.05,weatherlink.com 1.10,2013-03-09 23:13:00,
2013-03-09 17:28:00,66.9,65.0,29.68,SSW,207,8.0,12.0,92,0.00,,,0.05,weatherlink.com 1.10,2013-03-09 23:28:00,
2013-03-09 17:43:00,67.3,64.0,29.68,South,191,3.0,10.0,90,0.00,,,0.05,weatherlink.com 1.10,2013-03-09 23:43:00,
2013-03-09 17:58:00,67.7,64.0,29.69,South,171,8.0,12.0,88,0.00,,,0.05,weatherlink.com 1.10,2013-03-09 23:58:00,
2013-03-09 18:13:00,68.1,64.0,29.69,SSE,148,8.0,12.0,86,0.00,,,0.05,weatherlink.com 1.10,2013-03-10 00:13:00,
2013-03-09 18:28:00,68.0,64.0,29.69,South,187,4.0,13.0,86,0.00,,,0.05,weatherlink.com 1.10,2013-03-10 00:28:00,
2013-03-09 18:43:00,68.1,64.0,29.70,South,173,9.0,13.0,85,0.00,,,0.05,weatherlink.com 1.10,2013-03-10 00:43:00,
2013-03-09 18:58:00,68.3,63.0,29.70,South,180,11.0,17.0,84,0.00,,,0.05,weatherlink.com 1.10,2013-03-10 00:58:00,
2013-03-09 19:13:00,68.1,63.0,29.69,South,169,4.0,14.0,84,0.00,,,0.05,weatherlink.com 1.10,2013-03-10 01:13:00,
2013-03-09 19:28:00,68.0,63.0,29.68,SSE,147,5.0,12.0,84,0.00,,,0.05,weatherlink.com 1.10,2013-03-10 01:28:00,
2013-03-09 19:43:00,68.0,63.0,29.70,South,172,5.0,11.0,84,0.00,,,0.05,weatherlink.com 1.10,2013-03-10 01:43:00,
2013-03-09 19:58:00,67.8,63.0,29.70,SW,236,3.0,6.0,84,0.00,,,0.05,weatherlink.com 1.10,2013-03-10 01:58:00,
2013-03-09 20:28:00,68.1,63.0,29.71,SSE,166,4.0,5.0,83,0.00,,,0.05,weatherlink.com 1.10,2013-03-10 02:28:00,
2013-03-09 20:43:00,68.0,63.0,29.72,SE,138,1.0,8.0,84,0.01,,,0.06,weatherlink.com 1.10,2013-03-10 02:43:00,
2013-03-09 20:58:00,67.4,63.0,29.72,South,180,3.0,12.0,85,0.05,,,0.10,weatherlink.com 1.10,2013-03-10 02:58:00,
2013-03-09 21:13:00,66.8,63.0,29.74,WSW,245,8.0,8.0,88,0.08,,,0.13,weatherlink.com 1.10,2013-03-10 03:13:00,
2013-03-09 21:28:00,60.3,58.0,29.72,NW,316,7.0,26.0,91,0.76,,,0.81,weatherlink.com 1.10,2013-03-10 03:28:00,
2013-03-09 21:43:00,61.2,59.0,29.71,WSW,252,5.0,9.0,92,0.75,,,0.81,weatherlink.com 1.10,2013-03-10 03:43:00,
2013-03-09 21:58:00,61.7,60.0,29.70,SE,127,0.0,4.0,93,0.72,,,0.82,weatherlink.com 1.10,2013-03-10 03:58:00,
2013-03-09 22:13:00,62.1,60.0,29.73,WSW,246,1.0,4.0,92,0.72,,,0.85,weatherlink.com 1.10,2013-03-10 04:13:00,
2013-03-09 22:28:00,61.8,60.0,29.71,NW,323,2.0,3.0,94,0.07,,,0.88,weatherlink.com 1.10,2013-03-10 04:28:00,
2013-03-09 22:43:00,61.3,60.0,29.73,SW,231,2.0,5.0,94,0.22,,,1.03,weatherlink.com 1.10,2013-03-10 04:43:00,
2013-03-09 22:58:00,61.3,60.0,29.70,SW,233,6.0,9.0,95,0.43,,,1.25,weatherlink.com 1.10,2013-03-10 04:58:00,
2013-03-09 23:13:00,61.6,60.0,29.70,WNW,291,4.0,8.0,95,0.57,,,1.42,weatherlink.com 1.10,2013-03-10 05:13:00,
2013-03-09 23:28:00,61.3,60.0,29.73,WSW,248,7.0,7.0,95,0.71,,,1.60,weatherlink.com 1.10,2013-03-10 05:28:00,
2013-03-09 23:43:00,61.4,60.0,29.74,West,281,10.0,13.0,96,0.66,,,1.69,weatherlink.com 1.10,2013-03-10 05:43:00,
2013-03-09 23:58:00,61.4,60.0,29.76,WSW,244,7.0,13.0,95,0.44,,,1.69,weatherlink.com 1.10,2013-03-10 05:58:00,